Northfield, New York
Current Conditions -  °F | °C
As of 3:15 AM on Friday 24 Oct 2014 (Local Time) from KMSV Reporting Station
Overcast Overcast  
Wind Chill: 39°   Ceiling: 1200
Heat Index: 45°   Visibility: 10mi
Dew Point: 41°   Wind: 12mph
Humidity: 87%   Direction: 310°NW
Pressure: 29.82"   Gusts: NA
Location:  42.1536°N, 75.1637°W
Report Text: KMSV 240715Z AUTO 31010KT 10SM OVC012 07/05 A2982 RMK AO1 P0001
Loading
Personal Weather Stations






























Interactive Weather Map
Tropical Storm Tracking
New forecast layout! Learn more

10-Day Weather Forecast

Advertisements
Track Severe Weather on mobile